createdAt,value
2019-05-05T00:02:01.540Z,3.03
2019-05-05T00:04:50.218Z,2.90
2019-05-05T00:07:26.389Z,2.83
2019-05-05T00:09:56.150Z,3.10
2019-05-05T00:12:45.863Z,2.37
2019-05-05T00:15:34.516Z,3.50
2019-05-05T00:18:05.401Z,3.40
2019-05-05T00:20:35.080Z,3.43
2019-05-05T00:23:05.372Z,3.17
2019-05-05T00:25:35.577Z,3.07
2019-05-05T00:28:05.223Z,2.93
2019-05-05T00:30:34.943Z,3.57
2019-05-05T00:33:05.557Z,2.83
2019-05-05T00:35:35.362Z,3.57
2019-05-05T00:38:05.240Z,3.17
2019-05-05T00:40:35.375Z,3.30
2019-05-05T00:43:05.489Z,3.77
2019-05-05T00:45:37.123Z,3.17
2019-05-05T00:48:21.712Z,3.67
2019-05-05T00:50:51.912Z,3.52
2019-05-05T00:53:24.951Z,2.97
2019-05-05T00:55:54.710Z,3.70
2019-05-05T00:58:24.820Z,3.33
2019-05-05T01:01:11.957Z,3.30
2019-05-05T01:03:41.781Z,3.70
2019-05-05T01:06:17.202Z,3.20
2019-05-05T01:08:46.958Z,3.70
2019-05-05T01:11:17.937Z,3.60
2019-05-05T01:13:47.602Z,3.60
2019-05-05T01:16:17.252Z,3.90
2019-05-05T01:18:47.081Z,3.60
2019-05-05T01:21:17.010Z,3.83
2019-05-05T01:23:46.910Z,3.73
2019-05-05T01:26:16.553Z,3.97
2019-05-05T01:28:46.448Z,3.57
2019-05-05T01:31:18.061Z,3.47
2019-05-05T01:34:06.874Z,3.57
2019-05-05T01:36:36.681Z,4.00
2019-05-05T01:39:28.059Z,4.00
2019-05-05T01:42:00.664Z,4.07
2019-05-05T01:44:30.501Z,3.95
2019-05-05T01:47:00.267Z,4.20
2019-05-05T01:49:29.903Z,3.63
2019-05-05T01:51:59.540Z,3.97
2019-05-05T01:54:29.265Z,4.13
2019-05-05T01:57:00.075Z,4.40
2019-05-05T01:59:29.906Z,3.97
2019-05-05T02:02:00.148Z,3.67
2019-05-05T02:04:29.791Z,3.80
2019-05-05T02:06:59.508Z,3.77
2019-05-05T02:09:30.301Z,4.43
2019-05-05T02:12:00.034Z,3.27
2019-05-05T02:14:29.751Z,4.10
2019-05-05T02:16:59.583Z,3.90
2019-05-05T02:19:29.286Z,3.90
2019-05-05T02:21:59.996Z,4.47
2019-05-05T02:24:29.702Z,4.70
2019-05-05T02:26:59.442Z,4.17
2019-05-05T02:29:38.245Z,4.17
2019-05-05T02:32:25.922Z,4.10
2019-05-05T02:34:58.468Z,3.97
2019-05-05T02:37:37.538Z,4.35
2019-05-05T02:40:09.242Z,4.17
2019-05-05T02:42:39.079Z,4.53
2019-05-05T02:45:11.790Z,4.30
2019-05-05T02:47:59.239Z,4.30
2019-05-05T02:50:48.292Z,3.87
2019-05-05T02:53:04.067Z,4.53
2019-05-05T02:55:34.898Z,4.13
2019-05-05T02:58:05.617Z,4.43
2019-05-05T03:00:54.205Z,4.03
2019-05-05T03:03:23.981Z,4.37
2019-05-05T03:05:54.020Z,3.77
2019-05-05T03:08:24.344Z,3.52
2019-05-05T03:10:54.172Z,4.20
2019-05-05T03:13:24.407Z,4.05
2019-05-05T03:16:05.079Z,3.80
2019-05-05T03:18:34.979Z,4.35
2019-05-05T03:21:07.431Z,3.30
2019-05-05T03:23:37.022Z,4.10
2019-05-05T03:26:06.721Z,4.17
2019-05-05T03:28:43.959Z,3.87
2019-05-05T03:31:15.989Z,3.90
2019-05-05T03:33:46.375Z,3.70
2019-05-05T03:36:15.969Z,3.80
2019-05-05T03:38:46.626Z,3.70
2019-05-05T03:41:29.522Z,3.58
2019-05-05T03:44:06.838Z,3.77
2019-05-05T03:46:36.873Z,3.65
2019-05-05T03:49:06.642Z,3.90
2019-05-05T03:51:38.376Z,3.30
2019-05-05T03:54:08.237Z,3.17
2019-05-05T03:56:38.433Z,3.03
2019-05-05T03:59:08.182Z,3.10
2019-05-05T04:01:44.021Z,3.00
2019-05-05T04:04:24.419Z,3.33
2019-05-05T04:06:54.765Z,3.83
2019-05-05T04:09:24.579Z,3.43
2019-05-05T04:11:54.424Z,3.30
2019-05-05T04:14:24.959Z,3.30
2019-05-05T04:17:05.942Z,3.30
2019-05-05T04:19:36.912Z,3.47
2019-05-05T04:22:06.545Z,3.10
2019-05-05T04:24:36.180Z,3.22
2019-05-05T04:27:06.048Z,3.03
2019-05-05T04:29:35.732Z,3.30
2019-05-05T04:32:05.490Z,3.40
2019-05-05T04:34:35.184Z,3.40
2019-05-05T04:37:05.417Z,3.40
2019-05-05T04:39:35.151Z,3.60
2019-05-05T04:42:05.080Z,3.30
2019-05-05T04:44:34.950Z,3.47
2019-05-05T04:47:11.455Z,3.00
2019-05-05T04:49:47.015Z,2.90
2019-05-05T04:52:18.268Z,2.77
2019-05-05T04:54:49.827Z,3.40
2019-05-05T04:57:19.561Z,3.17
2019-05-05T04:59:51.404Z,3.20
2019-05-05T05:02:46.660Z,3.00
2019-05-05T05:05:38.423Z,3.07
2019-05-05T05:08:08.120Z,3.03
2019-05-05T05:10:37.788Z,3.57
2019-05-05T05:13:07.536Z,3.13
2019-05-05T05:15:38.584Z,3.07
2019-05-05T05:18:14.761Z,3.10
2019-05-05T05:20:45.155Z,3.27
2019-05-05T05:23:14.884Z,3.13
2019-05-05T05:25:44.813Z,3.43
2019-05-05T05:28:15.529Z,3.10
2019-05-05T05:30:45.959Z,3.72
2019-05-05T05:33:15.731Z,3.17
2019-05-05T05:35:45.458Z,3.53
2019-05-05T05:38:16.173Z,3.27
2019-05-05T05:40:57.683Z,2.97
2019-05-05T05:43:36.421Z,3.23
2019-05-05T05:46:14.862Z,3.57
2019-05-05T05:49:02.069Z,3.77
2019-05-05T05:51:33.677Z,3.80
2019-05-05T05:54:04.112Z,3.70
2019-05-05T05:56:34.875Z,3.12
2019-05-05T05:59:04.670Z,3.20
2019-05-05T06:01:34.688Z,3.43
2019-05-05T06:04:05.345Z,3.17
2019-05-05T06:06:34.981Z,2.87
2019-05-05T06:09:06.298Z,3.13
2019-05-05T06:11:36.019Z,2.80
2019-05-05T06:14:05.735Z,3.97
2019-05-05T06:16:35.524Z,2.93
2019-05-05T06:19:05.360Z,2.90
2019-05-05T06:21:35.142Z,3.65
2019-05-05T06:24:04.884Z,3.73
2019-05-05T06:26:34.592Z,3.03
2019-05-05T06:29:04.553Z,3.40
2019-05-05T06:31:34.410Z,3.50
2019-05-05T06:34:04.088Z,3.27
2019-05-05T06:36:34.174Z,3.53
2019-05-05T06:39:05.951Z,3.30
2019-05-05T06:41:57.705Z,3.60
2019-05-05T06:44:44.375Z,3.43
2019-05-05T06:47:16.473Z,3.67
2019-05-05T06:49:46.271Z,3.98
2019-05-05T06:52:15.921Z,3.30
2019-05-05T06:54:45.679Z,3.37
2019-05-05T06:57:15.503Z,3.90
2019-05-05T06:59:45.571Z,4.22
2019-05-05T07:02:15.297Z,3.33
2019-05-05T07:04:46.417Z,3.50
2019-05-05T07:07:16.279Z,3.90
2019-05-05T07:09:45.960Z,4.20
2019-05-05T07:12:15.667Z,3.77
2019-05-05T07:14:45.374Z,3.67
2019-05-05T07:17:15.183Z,3.40
2019-05-05T07:19:45.235Z,3.70
2019-05-05T07:22:17.697Z,3.00
2019-05-05T07:24:46.591Z,4.60
2019-05-05T07:27:17.288Z,3.90
2019-05-05T07:29:46.915Z,3.70
2019-05-05T07:32:16.658Z,3.73
2019-05-05T07:34:59.031Z,4.83
2019-05-05T07:37:28.896Z,3.90
2019-05-05T07:39:59.331Z,3.63
2019-05-05T07:42:29.077Z,3.53
2019-05-05T07:44:58.823Z,3.63
2019-05-05T07:47:28.580Z,4.00
2019-05-05T07:49:58.390Z,4.10
2019-05-05T07:52:28.127Z,3.80
2019-05-05T07:54:57.820Z,4.53
2019-05-05T07:57:27.612Z,4.50
2019-05-05T07:59:58.257Z,4.30
2019-05-05T08:02:28.029Z,3.80
2019-05-05T08:04:57.661Z,4.28
2019-05-05T08:07:27.532Z,4.30
2019-05-05T08:09:57.293Z,4.00
2019-05-05T08:12:27.133Z,3.87
2019-05-05T08:14:56.745Z,3.87
2019-05-05T08:17:45.381Z,3.77
2019-05-05T08:20:19.881Z,4.10
2019-05-05T08:22:49.540Z,4.30
2019-05-05T08:25:40.025Z,4.80
2019-05-05T08:28:25.651Z,4.70
2019-05-05T08:31:03.949Z,4.58
2019-05-05T08:33:33.740Z,3.70
2019-05-05T08:36:09.217Z,4.27
2019-05-05T08:38:38.895Z,5.07
2019-05-05T08:41:09.296Z,4.47
2019-05-05T08:43:39.014Z,4.43
2019-05-05T08:46:09.701Z,5.20
2019-05-05T08:48:39.485Z,5.23
2019-05-05T08:51:09.483Z,5.83
2019-05-05T08:53:44.881Z,5.35
2019-05-05T08:56:10.670Z,5.50
2019-05-05T08:58:40.553Z,5.23
2019-05-05T09:01:10.208Z,4.57
2019-05-05T09:03:40.534Z,4.65
2019-05-05T09:06:10.444Z,4.43
2019-05-05T09:08:40.229Z,4.20
2019-05-05T09:11:09.906Z,4.60
2019-05-05T09:13:39.591Z,4.53
2019-05-05T09:16:09.312Z,4.90
2019-05-05T09:18:58.360Z,4.95
2019-05-05T09:21:28.066Z,4.65
2019-05-05T09:24:02.604Z,5.22
2019-05-05T09:26:49.869Z,4.50
2019-05-05T09:29:20.820Z,4.95
2019-05-05T09:31:50.612Z,5.47
2019-05-05T09:34:20.624Z,5.33
2019-05-05T09:36:50.480Z,4.45
2019-05-05T09:39:20.355Z,4.13
2019-05-05T09:41:50.107Z,4.72
2019-05-05T09:44:19.815Z,5.03
2019-05-05T09:46:49.546Z,4.63
2019-05-05T09:49:19.263Z,5.30
2019-05-05T09:51:49.074Z,4.90
2019-05-05T09:54:19.015Z,4.70
2019-05-05T09:56:48.648Z,5.20
2019-05-05T09:59:18.409Z,5.40
2019-05-05T10:01:48.199Z,6.12
2019-05-05T10:04:18.524Z,5.75
2019-05-05T10:06:48.347Z,5.63
2019-05-05T10:09:18.083Z,4.77
2019-05-05T10:11:48.212Z,5.30
2019-05-05T10:14:17.859Z,5.63
2019-05-05T10:16:47.588Z,5.13
2019-05-05T10:19:17.353Z,4.50
2019-05-05T10:21:48.010Z,4.80
2019-05-05T10:24:31.145Z,4.90
2019-05-05T10:27:00.358Z,5.30
2019-05-05T10:29:30.016Z,4.27
2019-05-05T10:31:59.881Z,4.00
2019-05-05T10:34:29.674Z,3.83
2019-05-05T10:36:59.420Z,4.10
2019-05-05T10:39:34.015Z,4.33
2019-05-05T10:42:04.164Z,4.00
2019-05-05T10:44:34.578Z,4.43
2019-05-05T10:47:04.830Z,4.13
2019-05-05T10:49:35.583Z,4.27
2019-05-05T10:52:05.272Z,4.80
2019-05-05T10:54:43.989Z,4.03
2019-05-05T10:57:06.196Z,4.27
2019-05-05T10:59:35.823Z,2.87
2019-05-05T11:02:05.605Z,4.10
2019-05-05T11:04:35.329Z,3.20
2019-05-05T11:07:05.116Z,3.20
2019-05-05T11:09:34.974Z,4.13
2019-05-05T11:12:04.667Z,3.40
2019-05-05T11:14:34.304Z,3.80
2019-05-05T11:17:04.381Z,3.10
2019-05-05T11:19:35.016Z,3.47
2019-05-05T11:22:04.724Z,2.90
2019-05-05T11:24:34.676Z,3.00
2019-05-05T11:27:04.621Z,2.85
2019-05-05T11:29:36.152Z,2.50
2019-05-05T11:32:12.268Z,3.07
2019-05-05T11:34:44.185Z,2.40
2019-05-05T11:37:16.582Z,2.70
2019-05-05T11:39:46.440Z,3.00
2019-05-05T11:42:16.150Z,3.10
2019-05-05T11:44:47.548Z,2.50
2019-05-05T11:47:18.665Z,2.97
2019-05-05T11:49:48.408Z,3.27
2019-05-05T11:52:18.132Z,3.23
2019-05-05T11:54:49.236Z,3.08
2019-05-05T11:57:18.964Z,3.37
2019-05-05T11:59:48.889Z,3.23
2019-05-05T12:02:18.521Z,3.27
2019-05-05T12:04:48.234Z,3.83
2019-05-05T12:07:17.931Z,3.70
2019-05-05T12:09:54.761Z,3.60
2019-05-05T12:12:25.245Z,4.23
2019-05-05T12:14:57.044Z,3.93
2019-05-05T12:17:35.957Z,4.10
2019-05-05T12:20:08.471Z,4.30
2019-05-05T12:22:38.165Z,4.20
2019-05-05T12:25:28.665Z,3.83
2019-05-05T12:28:07.993Z,3.87
2019-05-05T12:30:37.643Z,4.27
2019-05-05T12:33:07.370Z,3.80
2019-05-05T12:35:37.183Z,3.63
2019-05-05T12:38:07.720Z,3.77
2019-05-05T12:40:38.763Z,3.23
2019-05-05T12:43:08.437Z,3.00
2019-05-05T12:45:39.907Z,2.75
2019-05-05T12:48:20.510Z,3.03
2019-05-05T12:50:50.329Z,3.03
2019-05-05T12:53:20.103Z,2.50
2019-05-05T12:55:49.975Z,3.02
2019-05-05T12:58:19.746Z,3.07
2019-05-05T13:01:03.780Z,2.90
2019-05-05T13:03:34.685Z,3.10
2019-05-05T13:06:05.472Z,3.03
2019-05-05T13:08:35.214Z,3.17
2019-05-05T13:11:04.924Z,3.67
2019-05-05T13:13:34.748Z,3.77
2019-05-05T13:16:05.603Z,3.03
2019-05-05T13:18:35.347Z,3.25
2019-05-05T13:21:24.205Z,3.27
2019-05-05T13:24:04.587Z,3.77
2019-05-05T13:26:48.155Z,3.37
2019-05-05T13:29:18.171Z,3.33
2019-05-05T13:31:48.335Z,4.20
2019-05-05T13:34:18.025Z,3.50
2019-05-05T13:36:47.697Z,4.30
2019-05-05T13:39:17.460Z,4.23
2019-05-05T13:41:47.286Z,3.80
2019-05-05T13:44:28.786Z,3.92
2019-05-05T13:46:58.606Z,4.23
2019-05-05T13:49:38.580Z,4.20
2019-05-05T13:52:08.276Z,3.70
2019-05-05T13:54:39.014Z,3.92
2019-05-05T13:57:08.783Z,3.90
2019-05-05T13:59:38.619Z,4.03
2019-05-05T14:02:08.359Z,3.90
2019-05-05T14:04:38.111Z,4.17
2019-05-05T14:07:07.963Z,4.20
2019-05-05T14:09:38.048Z,4.97
2019-05-05T14:12:07.883Z,4.77
2019-05-05T14:14:37.688Z,5.33
2019-05-05T14:17:07.608Z,5.13
2019-05-05T14:19:37.383Z,5.40
2019-05-05T14:22:07.301Z,4.97
2019-05-05T14:24:41.844Z,4.40
2019-05-05T14:27:11.612Z,4.03
2019-05-05T14:30:03.916Z,3.60
2019-05-05T14:32:35.931Z,3.63
2019-05-05T14:35:22.412Z,3.60
2019-05-05T14:37:54.814Z,3.50
2019-05-05T14:40:24.519Z,3.37
2019-05-05T14:42:54.761Z,3.70
2019-05-05T14:45:25.812Z,3.67
2019-05-05T14:47:55.612Z,4.00
2019-05-05T14:50:26.067Z,3.77
2019-05-05T14:52:55.878Z,3.93
2019-05-05T14:55:25.684Z,3.53
2019-05-05T14:57:56.517Z,3.60
2019-05-05T15:00:26.726Z,3.27
2019-05-05T15:02:56.528Z,3.15
2019-05-05T15:05:44.397Z,3.53
2019-05-05T15:08:28.229Z,3.57
2019-05-05T15:11:15.941Z,3.67
2019-05-05T15:13:45.804Z,3.13
2019-05-05T15:16:15.603Z,3.80
2019-05-05T15:18:45.359Z,3.80
2019-05-05T15:21:15.081Z,3.80
2019-05-05T15:23:45.159Z,3.70
2019-05-05T15:26:15.030Z,4.03
2019-05-05T15:28:58.632Z,3.27
2019-05-05T15:31:18.513Z,3.67
2019-05-05T15:33:48.907Z,3.77
2019-05-05T15:36:18.646Z,3.40
2019-05-05T15:38:48.430Z,3.80
2019-05-05T15:41:18.140Z,3.63
2019-05-05T15:43:48.899Z,3.43
2019-05-05T15:46:19.554Z,3.50
2019-05-05T15:48:49.328Z,3.43
2019-05-05T15:51:19.283Z,3.10
2019-05-05T15:53:48.961Z,3.00
2019-05-05T15:56:19.067Z,3.00
2019-05-05T15:58:48.743Z,2.70
2019-05-05T16:01:18.397Z,2.77
2019-05-05T16:03:48.140Z,2.93
2019-05-05T16:06:17.808Z,3.20
2019-05-05T16:08:47.460Z,2.98
2019-05-05T16:11:17.542Z,2.80
2019-05-05T16:13:47.337Z,3.67
2019-05-05T16:16:35.561Z,3.83
2019-05-05T16:19:13.908Z,3.53
2019-05-05T16:22:03.801Z,3.47
2019-05-05T16:24:36.597Z,4.30
2019-05-05T16:27:18.772Z,3.93
2019-05-05T16:29:37.932Z,4.00
2019-05-05T16:32:18.428Z,4.42
2019-05-05T16:34:39.463Z,4.30
2019-05-05T16:37:09.294Z,3.37
2019-05-05T16:39:39.080Z,3.57
2019-05-05T16:42:09.829Z,3.20
2019-05-05T16:44:39.558Z,3.80
2019-05-05T16:47:09.266Z,3.20
2019-05-05T16:49:39.122Z,3.27
2019-05-05T16:52:15.245Z,3.53
2019-05-05T16:55:04.601Z,3.10
2019-05-05T16:57:36.639Z,2.90
2019-05-05T17:00:07.254Z,3.30
2019-05-05T17:02:38.870Z,3.27
2019-05-05T17:05:08.896Z,2.77
2019-05-05T17:07:38.746Z,3.60
2019-05-05T17:10:09.721Z,3.20
2019-05-05T17:12:39.597Z,2.63
2019-05-05T17:15:27.616Z,3.47
2019-05-05T17:18:32.528Z,2.93
2019-05-05T17:20:59.037Z,3.03
2019-05-05T17:23:28.815Z,2.95
2019-05-05T17:25:58.630Z,3.20
2019-05-05T17:28:28.342Z,3.23
2019-05-05T17:30:58.072Z,3.00
2019-05-05T17:33:27.837Z,3.07
2019-05-05T17:35:57.658Z,3.57
2019-05-05T17:38:27.682Z,3.30
2019-05-05T17:41:18.135Z,3.17
2019-05-05T17:44:06.096Z,3.43
2019-05-05T17:46:49.726Z,2.90
2019-05-05T17:49:44.815Z,3.33
2019-05-05T17:52:19.421Z,4.27
2019-05-05T17:54:53.927Z,3.10
2019-05-05T17:57:23.778Z,3.03
2019-05-05T17:59:53.716Z,3.37
2019-05-05T18:02:23.773Z,3.10
2019-05-05T18:04:54.129Z,3.80
2019-05-05T18:07:37.403Z,3.47
2019-05-05T18:10:13.489Z,3.40
2019-05-05T18:13:00.787Z,3.50
2019-05-05T18:15:48.429Z,3.57
2019-05-05T18:18:18.285Z,3.45
2019-05-05T18:20:48.074Z,4.03
2019-05-05T18:23:17.768Z,2.97
2019-05-05T18:25:47.473Z,3.50
2019-05-05T18:28:20.163Z,3.90
2019-05-05T18:30:48.669Z,3.98
2019-05-05T18:33:18.400Z,3.13
2019-05-05T18:35:48.399Z,3.47
2019-05-05T18:38:18.069Z,3.37
2019-05-05T18:40:48.596Z,3.83
2019-05-05T18:43:37.459Z,3.47
2019-05-05T18:46:07.724Z,3.17
2019-05-05T18:48:37.456Z,3.37
2019-05-05T18:51:07.134Z,3.20
2019-05-05T18:53:37.064Z,3.30
2019-05-05T18:56:06.804Z,3.80
2019-05-05T18:58:37.019Z,2.93
2019-05-05T19:01:28.654Z,2.97
2019-05-05T19:04:15.955Z,5.35
2019-05-05T19:07:11.220Z,5.03
2019-05-05T19:09:51.012Z,12.53
2019-05-05T19:12:12.209Z,5.50
2019-05-05T19:14:44.126Z,5.43
2019-05-05T19:17:14.203Z,4.23
2019-05-05T19:19:48.156Z,3.43
2019-05-05T19:22:19.018Z,3.30
2019-05-05T19:24:48.704Z,3.93
2019-05-05T19:27:18.464Z,3.50
2019-05-05T19:29:48.289Z,3.65
2019-05-05T19:32:18.098Z,3.47
2019-05-05T19:34:47.842Z,4.00
2019-05-05T19:37:17.509Z,3.60
2019-05-05T19:39:48.143Z,3.98
2019-05-05T19:42:17.839Z,4.10
2019-05-05T19:44:47.548Z,3.57
2019-05-05T19:47:19.612Z,3.60
2019-05-05T19:50:04.979Z,3.50
2019-05-05T19:52:34.959Z,3.60
2019-05-05T19:55:05.354Z,3.80
2019-05-05T19:57:36.126Z,3.72
2019-05-05T20:00:07.000Z,3.73
2019-05-05T20:02:38.098Z,3.73
2019-05-05T20:05:07.838Z,3.27
2019-05-05T20:07:37.679Z,4.23
2019-05-05T20:10:07.858Z,3.97
2019-05-05T20:12:37.636Z,4.07
2019-05-05T20:15:08.042Z,3.75
2019-05-05T20:17:38.087Z,3.00
2019-05-05T20:20:08.852Z,3.40
2019-05-05T20:22:38.541Z,3.27
2019-05-05T20:25:08.604Z,4.43
2019-05-05T20:27:38.241Z,7.40
2019-05-05T20:30:08.323Z,7.67
2019-05-05T20:32:47.159Z,11.20
2019-05-05T20:35:35.507Z,9.93
2019-05-05T20:38:20.900Z,10.63
2019-05-05T20:41:08.483Z,9.93
2019-05-05T20:43:38.180Z,10.17
2019-05-05T20:46:08.347Z,9.30
2019-05-05T20:48:41.046Z,7.23
2019-05-05T20:51:09.743Z,4.35
2019-05-05T20:53:39.650Z,3.50
2019-05-05T20:56:09.669Z,4.00
2019-05-05T20:58:39.638Z,3.50
2019-05-05T21:01:09.541Z,3.43
2019-05-05T21:03:39.481Z,3.60
2019-05-05T21:06:09.333Z,3.30
2019-05-05T21:08:40.292Z,2.92
2019-05-05T21:11:10.244Z,3.40
2019-05-05T21:13:39.892Z,3.10
2019-05-05T21:16:15.682Z,3.22
2019-05-05T21:18:45.498Z,3.33
2019-05-05T21:21:20.508Z,3.40
2019-05-05T21:23:54.727Z,3.10
2019-05-05T21:26:42.100Z,2.90
2019-05-05T21:29:14.060Z,3.07
2019-05-05T21:31:44.163Z,3.20
2019-05-05T21:34:14.131Z,3.40
2019-05-05T21:36:44.858Z,3.30
2019-05-05T21:39:15.009Z,3.30
2019-05-05T21:41:44.801Z,3.27
2019-05-05T21:44:14.840Z,3.50
2019-05-05T21:46:44.587Z,3.47
2019-05-05T21:49:14.407Z,2.98
2019-05-05T21:52:14.372Z,3.03
2019-05-05T21:54:54.442Z,3.83
2019-05-05T21:57:43.981Z,3.50
2019-05-05T22:00:31.085Z,4.00
2019-05-05T22:03:04.385Z,3.27
2019-05-05T22:05:33.872Z,3.08
2019-05-05T22:08:04.748Z,3.90
2019-05-05T22:10:34.607Z,4.33
2019-05-05T22:13:04.978Z,3.93
2019-05-05T22:15:35.837Z,3.87
2019-05-05T22:18:05.552Z,2.83
2019-05-05T22:20:40.805Z,3.57
2019-05-05T22:23:10.631Z,3.47
2019-05-05T22:25:40.315Z,4.00
2019-05-05T22:28:11.093Z,3.43
2019-05-05T22:30:40.731Z,3.57
2019-05-05T22:33:10.479Z,3.00
2019-05-05T22:35:40.205Z,3.42
2019-05-05T22:38:09.892Z,3.10
2019-05-05T22:40:40.461Z,3.22
2019-05-05T22:43:10.126Z,4.00
2019-05-05T22:45:39.885Z,2.97
2019-05-05T22:48:09.677Z,3.10
2019-05-05T22:50:39.569Z,3.53
2019-05-05T22:53:09.540Z,3.40
2019-05-05T22:55:39.306Z,4.23
2019-05-05T22:58:09.306Z,3.55
2019-05-05T23:00:39.297Z,3.20
2019-05-05T23:03:18.062Z,3.60
2019-05-05T23:05:55.454Z,4.10
2019-05-05T23:08:25.173Z,4.17
2019-05-05T23:10:54.855Z,3.53
2019-05-05T23:13:24.677Z,3.97
2019-05-05T23:16:04.232Z,3.30
2019-05-05T23:18:34.751Z,4.40
2019-05-05T23:21:34.277Z,3.77
2019-05-05T23:24:28.009Z,4.53
2019-05-05T23:26:57.736Z,4.10
2019-05-05T23:29:27.415Z,4.57
2019-05-05T23:31:58.134Z,3.70
2019-05-05T23:34:27.900Z,3.95
2019-05-05T23:36:57.624Z,3.23
2019-05-05T23:39:27.457Z,4.53
2019-05-05T23:41:57.319Z,4.37
2019-05-05T23:44:27.006Z,3.70
2019-05-05T23:46:56.900Z,4.07
2019-05-05T23:49:26.632Z,4.20
2019-05-05T23:51:57.148Z,4.05
2019-05-05T23:54:26.793Z,4.20
2019-05-05T23:56:56.813Z,3.83
2019-05-05T23:59:26.461Z,4.10
